Time;durP1;ratioP1;P1;durP2;ratioP2;P2;SDS_P1;SDS_P2;PMS_P1;PMS_P2;Temp;Humidity;BMP_temperature;BMP_pressure;BME280_temperature;BME280_humidity;BME280_pressure;Samples;Min_cycle;Max_cycle;Signal;HPM_P1;HPM_P2
2023/11/01 00:01:41;;;;;;;3.53;2.20;;;15.30;92.10;;;;;;5016186;28;20021;-82
2023/11/01 00:04:07;;;;;;;3.50;2.20;;;15.30;92.10;;;;;;5014697;28;20117;-82
2023/11/01 00:06:33;;;;;;;4.30;2.15;;;15.40;92.00;;;;;;5014712;28;20026;-83
2023/11/01 00:08:58;;;;;;;3.92;2.25;;;15.40;92.00;;;;;;5016110;28;20026;-82
2023/11/01 00:11:24;;;;;;;3.80;2.20;;;15.40;91.90;;;;;;5015948;28;20105;-83
2023/11/01 00:13:49;;;;;;;3.03;1.92;;;15.40;91.90;;;;;;5014367;28;20040;-82
2023/11/01 00:16:15;;;;;;;4.32;2.38;;;15.40;91.80;;;;;;5015963;28;20034;-82
2023/11/01 00:18:41;;;;;;;3.22;2.10;;;15.40;91.70;;;;;;5015443;28;20033;-82
2023/11/01 00:21:07;;;;;;;3.80;2.10;;;15.40;91.70;;;;;;5014429;28;20022;-82
2023/11/01 00:23:33;;;;;;;3.40;2.03;;;15.40;91.70;;;;;;5014082;28;20029;-83
2023/11/01 00:25:58;;;;;;;4.30;2.20;;;15.40;91.80;;;;;;5013015;28;20026;-83
2023/11/01 00:28:24;;;;;;;4.40;2.40;;;15.40;91.80;;;;;;5013419;28;20115;-82
2023/11/01 00:30:49;;;;;;;3.92;2.28;;;15.40;91.80;;;;;;5014107;28;20034;-83
2023/11/01 00:33:15;;;;;;;3.40;2.15;;;15.40;91.90;;;;;;5014184;28;20026;-82
2023/11/01 00:35:41;;;;;;;3.70;2.33;;;15.40;91.90;;;;;;5014431;28;20033;-82
2023/11/01 00:38:09;;;;;;;4.03;2.20;;;15.40;91.90;;;;;;5013777;28;20034;-83
2023/11/01 00:40:34;;;;;;;3.83;2.13;;;15.40;92.00;;;;;;5013908;28;20096;-83
2023/11/01 00:43:00;;;;;;;3.88;2.30;;;15.40;92.00;;;;;;5014029;28;20511;-82
2023/11/01 00:45:25;;;;;;;4.25;2.35;;;15.30;92.00;;;;;;5015614;28;20030;-82
2023/11/01 00:47:51;;;;;;;3.78;2.30;;;15.30;92.00;;;;;;5013765;28;20488;-82
2023/11/01 00:50:16;;;;;;;3.97;2.35;;;15.30;92.00;;;;;;5013931;28;20025;-81
2023/11/01 00:52:42;;;;;;;3.47;2.00;;;15.30;92.00;;;;;;5013901;28;20091;-83
2023/11/01 00:55:08;;;;;;;3.58;2.00;;;15.30;92.00;;;;;;5015432;28;20029;-82
2023/11/01 00:57:33;;;;;;;3.10;1.92;;;15.30;92.00;;;;;;5013420;28;20030;-83
2023/11/01 00:59:59;;;;;;;4.32;2.40;;;15.30;92.00;;;;;;5013929;28;20022;-82
2023/11/01 01:02:25;;;;;;;3.53;2.20;;;15.30;92.10;;;;;;5013662;28;20026;-83
2023/11/01 01:04:50;;;;;;;4.28;1.95;;;15.30;92.10;;;;;;5013974;28;20017;-82
2023/11/01 01:07:16;;;;;;;4.43;2.40;;;15.30;92.10;;;;;;5013424;28;20026;-82
2023/11/01 01:09:42;;;;;;;3.58;2.10;;;15.30;92.10;;;;;;5014962;28;20026;-82
2023/11/01 01:12:08;;;;;;;3.85;2.40;;;15.30;92.10;;;;;;5013770;28;20050;-82
2023/11/01 01:14:33;;;;;;;3.40;2.00;;;15.30;92.10;;;;;;5015049;28;20018;-82
2023/11/01 01:16:59;;;;;;;4.00;2.10;;;15.30;92.10;;;;;;5013337;28;20550;-84
2023/11/01 01:19:24;;;;;;;3.05;1.88;;;15.30;92.10;;;;;;5014805;28;20100;-82
2023/11/01 01:21:50;;;;;;;3.22;1.90;;;15.30;92.10;;;;;;5013506;28;20034;-82
2023/11/01 01:24:16;;;;;;;3.83;2.25;;;15.30;92.00;;;;;;5013300;28;20028;-83
2023/11/01 01:26:41;;;;;;;2.88;1.80;;;15.40;91.90;;;;;;5013337;28;20029;-81
2023/11/01 01:29:07;;;;;;;3.50;2.13;;;15.40;91.90;;;;;;5013050;28;20036;-82
2023/11/01 01:31:36;;;;;;;3.30;2.08;;;15.40;91.80;;;;;;5013379;28;20025;-82
2023/11/01 01:34:01;;;;;;;3.38;2.00;;;15.40;91.80;;;;;;5013201;28;20033;-82
2023/11/01 01:36:27;;;;;;;3.20;1.90;;;15.40;91.80;;;;;;5013245;28;20026;-83
2023/11/01 01:38:53;;;;;;;3.42;2.08;;;15.40;91.70;;;;;;5014422;28;20033;-82
2023/11/01 01:41:18;;;;;;;3.58;2.10;;;15.40;91.80;;;;;;5014557;28;20026;-82
2023/11/01 01:43:44;;;;;;;3.92;2.30;;;15.40;91.80;;;;;;5012972;28;20045;-82
2023/11/01 01:46:13;;;;;;;3.63;2.17;;;15.40;91.90;;;;;;5013224;28;20230;-81
2023/11/01 01:48:40;;;;;;;3.33;2.10;;;15.40;91.90;;;;;;5014435;28;20109;-82
2023/11/01 01:51:09;;;;;;;4.40;2.20;;;15.30;91.90;;;;;;5026103;28;20561;-83
2023/11/01 01:53:43;;;;;;;3.42;2.10;;;15.40;92.00;;;;;;5057876;22;20756;-83
2023/11/01 01:56:10;;;;;;;3.47;2.15;;;15.30;92.20;;;;;;5036403;28;20091;-83
2023/11/01 01:58:37;;;;;;;3.22;2.05;;;15.30;92.00;;;;;;5039940;28;20056;-83
2023/11/01 02:01:04;;;;;;;3.35;2.20;;;15.40;92.00;;;;;;5039540;28;20467;-83
2023/11/01 02:03:29;;;;;;;3.20;2.10;;;15.30;92.00;;;;;;5039482;28;20045;-83
2023/11/01 02:05:56;;;;;;;3.10;2.00;;;15.30;92.00;;;;;;5041607;28;20460;-83
2023/11/01 02:08:22;;;;;;;4.00;2.30;;;15.30;92.00;;;;;;5041022;28;20265;-83
2023/11/01 02:10:47;;;;;;;3.45;2.13;;;15.30;92.00;;;;;;5039363;28;20052;-82
2023/11/01 02:13:14;;;;;;;3.63;2.28;;;15.30;92.00;;;;;;5038692;28;20030;-83
2023/11/01 02:15:41;;;;;;;3.42;1.98;;;15.30;92.00;;;;;;5040992;28;20025;-83
2023/11/01 02:18:07;;;;;;;4.15;2.20;;;15.30;92.30;;;;;;5039726;28;20085;-82
2023/11/01 02:20:37;;;;;;;4.00;2.10;;;15.30;92.00;;;;;;5038218;28;20116;-83
2023/11/01 02:23:10;;;;;;;4.07;2.17;;;15.30;92.00;;;;;;5039468;28;20030;-82
2023/11/01 02:25:36;;;;;;;2.95;1.95;;;15.30;92.10;;;;;;5038629;28;20021;-82
2023/11/01 02:28:03;;;;;;;3.05;1.88;;;15.30;92.10;;;;;;5038711;28;20497;-83
2023/11/01 02:30:28;;;;;;;3.42;1.90;;;15.40;92.10;;;;;;5037501;28;20032;-82
2023/11/01 02:32:54;;;;;;;3.20;1.90;;;15.30;92.10;;;;;;5037997;28;20076;-82
2023/11/01 02:35:20;;;;;;;4.50;2.10;;;15.30;92.10;;;;;;5037572;28;20029;-82
2023/11/01 02:37:47;;;;;;;3.10;1.98;;;15.30;92.00;;;;;;5039014;28;20113;-82
2023/11/01 02:40:14;;;;;;;2.88;1.77;;;15.30;92.00;;;;;;5037051;28;20025;-82
2023/11/01 02:42:40;;;;;;;3.22;2.00;;;15.30;91.90;;;;;;5038865;28;20021;-82
2023/11/01 02:45:09;;;;;;;3.15;2.00;;;15.40;91.90;;;;;;5037313;28;20399;-82
2023/11/01 02:47:35;;;;;;;2.92;1.92;;;15.40;91.80;;;;;;5038369;28;20025;-82
2023/11/01 02:50:02;;;;;;;4.07;2.17;;;15.40;91.80;;;;;;5036294;28;20391;-82
2023/11/01 02:52:27;;;;;;;3.60;1.95;;;15.40;91.80;;;;;;5038457;28;20048;-82
2023/11/01 02:54:53;;;;;;;3.78;2.28;;;15.40;91.80;;;;;;5036314;28;20391;-82
2023/11/01 02:57:18;;;;;;;2.95;1.85;;;15.40;91.80;;;;;;5038024;28;20075;-83
2023/11/01 02:59:44;;;;;;;2.90;1.90;;;15.40;91.80;;;;;;5035768;28;20220;-82
2023/11/01 03:02:09;;;;;;;4.25;2.33;;;15.40;91.80;;;;;;5036172;28;20033;-82
2023/11/01 03:04:35;;;;;;;4.22;1.98;;;15.30;91.90;;;;;;5036901;28;20085;-82
2023/11/01 03:07:00;;;;;;;3.50;2.00;;;15.40;91.90;;;;;;5035261;28;20026;-82
2023/11/01 03:09:26;;;;;;;3.33;1.90;;;15.30;91.90;;;;;;5035179;28;20030;-82
2023/11/01 03:11:51;;;;;;;2.90;1.92;;;15.30;92.00;;;;;;5034826;28;20479;-82
2023/11/01 03:14:17;;;;;;;4.28;2.10;;;15.30;92.00;;;;;;5035277;28;20056;-82
2023/11/01 03:16:42;;;;;;;2.92;1.80;;;15.30;92.00;;;;;;5036501;28;20395;-82
2023/11/01 03:19:08;;;;;;;3.15;2.13;;;15.30;92.00;;;;;;5034826;28;20080;-82
2023/11/01 03:21:33;;;;;;;3.40;2.10;;;15.30;92.00;;;;;;5035273;28;20032;-83
2023/11/01 03:23:59;;;;;;;3.92;2.00;;;15.30;92.00;;;;;;5031122;28;20490;-82
2023/11/01 03:26:24;;;;;;;2.95;1.80;;;15.30;92.10;;;;;;5034243;28;20100;-82
2023/11/01 03:28:50;;;;;;;4.28;2.10;;;15.30;92.10;;;;;;5035749;28;20364;-83
2023/11/01 03:31:18;;;;;;;2.78;1.80;;;15.30;92.10;;;;;;5034550;28;20025;-82
2023/11/01 03:33:45;;;;;;;2.72;1.80;;;15.30;92.10;;;;;;5034835;28;20021;-82
2023/11/01 03:36:11;;;;;;;2.75;1.75;;;15.30;92.10;;;;;;5035644;28;20029;-82
2023/11/01 03:38:37;;;;;;;4.38;2.08;;;15.20;92.10;;;;;;5035283;28;20030;-82
2023/11/01 03:41:03;;;;;;;3.10;1.73;;;15.30;92.10;;;;;;5033922;28;20021;-83
2023/11/01 03:43:29;;;;;;;2.95;1.73;;;15.20;92.10;;;;;;5033709;28;20041;-82
2023/11/01 03:45:54;;;;;;;3.15;1.65;;;15.20;92.10;;;;;;5034126;28;20442;-83
2023/11/01 03:48:20;;;;;;;3.33;1.92;;;15.30;92.10;;;;;;5033584;28;20036;-81
2023/11/01 03:50:45;;;;;;;2.58;1.70;;;15.30;92.10;;;;;;5035083;28;20423;-82
2023/11/01 03:53:11;;;;;;;2.40;1.50;;;15.30;92.10;;;;;;5034556;28;20034;-82
2023/11/01 03:55:36;;;;;;;2.28;1.50;;;15.30;92.00;;;;;;5033494;28;20040;-82
2023/11/01 03:58:02;;;;;;;3.35;1.75;;;15.40;92.00;;;;;;5033348;28;20509;-82
2023/11/01 04:00:27;;;;;;;2.95;1.77;;;15.30;91.90;;;;;;5032890;28;20035;-81
2023/11/01 04:02:53;;;;;;;2.60;1.70;;;15.40;91.90;;;;;;5033464;28;20013;-81
2023/11/01 04:05:18;;;;;;;2.17;1.60;;;15.40;91.80;;;;;;5033123;28;20026;-81
2023/11/01 04:07:45;;;;;;;2.40;1.70;;;15.40;91.80;;;;;;5033001;28;20056;-81
2023/11/01 04:10:10;;;;;;;2.25;1.70;;;15.40;91.70;;;;;;5032665;28;20021;-81
2023/11/01 04:12:36;;;;;;;3.33;1.50;;;15.40;91.80;;;;;;5033101;28;20120;-81
2023/11/01 04:15:07;;;;;;;3.28;1.70;;;15.40;91.70;;;;;;5032915;28;20021;-81
2023/11/01 04:17:33;;;;;;;3.45;2.00;;;15.40;91.80;;;;;;5033926;28;20021;-81
2023/11/01 04:19:58;;;;;;;2.65;1.70;;;15.40;91.80;;;;;;5032532;28;20048;-81
2023/11/01 04:22:25;;;;;;;2.90;1.77;;;15.40;91.90;;;;;;5031777;28;20025;-81
2023/11/01 04:24:50;;;;;;;3.13;1.60;;;15.30;91.90;;;;;;5032474;28;20064;-81
2023/11/01 04:27:16;;;;;;;2.05;1.63;;;15.30;91.90;;;;;;5032485;28;20036;-81
2023/11/01 04:29:41;;;;;;;2.85;1.75;;;15.30;91.90;;;;;;5032213;28;20030;-81
2023/11/01 04:32:07;;;;;;;2.50;1.50;;;15.30;92.00;;;;;;5033504;28;20026;-81
2023/11/01 04:34:33;;;;;;;2.65;1.58;;;15.30;92.00;;;;;;5032089;28;20025;-81
2023/11/01 04:36:59;;;;;;;3.78;1.67;;;15.30;92.00;;;;;;5033951;28;20029;-82
2023/11/01 04:39:24;;;;;;;2.63;1.60;;;15.30;92.00;;;;;;5039189;28;20095;-83
2023/11/01 04:41:50;;;;;;;2.58;1.70;;;15.30;92.00;;;;;;5039921;28;20419;-82
2023/11/01 04:44:15;;;;;;;3.25;1.52;;;15.30;92.10;;;;;;5039288;28;20415;-82
2023/11/01 04:46:41;;;;;;;2.55;1.50;;;15.30;92.10;;;;;;5039839;28;20052;-82
2023/11/01 04:49:07;;;;;;;2.25;1.40;;;15.30;92.10;;;;;;5040417;28;20506;-82
2023/11/01 04:51:32;;;;;;;2.65;1.58;;;15.20;92.10;;;;;;5039179;28;20394;-82
2023/11/01 04:53:58;;;;;;;2.08;1.40;;;15.20;92.10;;;;;;5039952;28;20034;-82
2023/11/01 04:56:25;;;;;;;3.17;1.63;;;15.20;92.10;;;;;;5039168;28;20083;-82
2023/11/01 04:58:50;;;;;;;2.90;1.58;;;15.20;92.10;;;;;;5037322;28;20072;-82
2023/11/01 05:01:16;;;;;;;2.42;1.40;;;15.30;92.10;;;;;;5037074;28;20017;-82
2023/11/01 05:03:42;;;;;;;2.65;1.60;;;15.20;92.10;;;;;;5036767;28;20025;-82
2023/11/01 05:06:07;;;;;;;2.72;1.42;;;15.30;92.10;;;;;;5036876;28;20398;-82
2023/11/01 05:08:34;;;;;;;2.58;1.50;;;15.30;92.10;;;;;;5037963;28;20399;-82
2023/11/01 05:11:00;;;;;;;2.22;1.35;;;15.20;92.10;;;;;;5040050;28;20152;-82
2023/11/01 05:13:25;;;;;;;2.45;1.50;;;15.30;92.10;;;;;;5039061;28;20057;-82
2023/11/01 05:15:52;;;;;;;2.35;1.52;;;15.30;92.10;;;;;;5037459;28;20035;-82
2023/11/01 05:18:18;;;;;;;2.03;1.30;;;15.30;92.00;;;;;;5038077;28;20603;-82
2023/11/01 05:20:44;;;;;;;2.30;1.45;;;15.30;92.00;;;;;;5036966;28;20021;-82
2023/11/01 05:23:09;;;;;;;3.05;1.60;;;15.40;91.90;;;;;;5036813;28;20081;-82
2023/11/01 05:25:35;;;;;;;2.58;1.50;;;15.40;91.90;;;;;;5028876;28;20025;-81
2023/11/01 05:28:00;;;;;;;1.88;1.35;;;15.40;91.80;;;;;;5018815;28;20030;-82
2023/11/01 05:30:26;;;;;;;2.17;1.25;;;15.40;91.80;;;;;;5018355;28;20404;-82
2023/11/01 05:32:51;;;;;;;2.83;1.50;;;15.40;91.80;;;;;;5018583;28;20399;-82
2023/11/01 05:35:17;;;;;;;2.08;1.35;;;15.40;91.80;;;;;;5036113;28;20465;-82
2023/11/01 05:37:43;;;;;;;1.85;1.20;;;15.30;91.80;;;;;;5038646;28;20025;-82
2023/11/01 05:40:15;;;;;;;2.78;1.30;;;15.30;91.90;;;;;;5054085;28;20036;-82
2023/11/01 05:42:42;;;;;;;2.40;1.38;;;15.30;91.90;;;;;;5054503;28;20419;-82
2023/11/01 05:45:08;;;;;;;1.70;1.30;;;15.30;91.90;;;;;;5038763;28;20021;-82
2023/11/01 05:47:35;;;;;;;2.85;1.38;;;15.30;91.90;;;;;;5053499;28;20104;-82
2023/11/01 05:50:00;;;;;;;2.05;1.33;;;15.30;92.00;;;;;;5035711;28;20029;-82
2023/11/01 05:52:29;;;;;;;2.63;1.30;;;15.30;92.00;;;;;;5052338;28;20030;-81
2023/11/01 05:54:54;;;;;;;2.63;1.40;;;15.30;92.00;;;;;;5035237;28;20045;-82
2023/11/01 05:57:20;;;;;;;1.90;1.25;;;15.30;92.00;;;;;;5037007;28;20092;-82
2023/11/01 05:59:46;;;;;;;2.45;1.30;;;15.20;92.00;;;;;;5016709;28;20053;-81
2023/11/01 06:02:12;;;;;;;1.50;1.20;;;15.30;92.00;;;;;;5014966;28;20045;-81
2023/11/01 06:04:38;;;;;;;2.58;1.40;;;15.30;92.10;;;;;;5014885;28;20072;-81
2023/11/01 06:07:03;;;;;;;2.13;1.30;;;15.20;92.00;;;;;;5015017;28;20499;-81
2023/11/01 06:09:29;;;;;;;2.65;1.30;;;15.20;92.00;;;;;;5016064;28;20082;-81
2023/11/01 06:11:57;;;;;;;2.80;1.30;;;15.20;92.00;;;;;;5014135;28;20041;-81
2023/11/01 06:14:23;;;;;;;2.53;1.40;;;15.20;92.00;;;;;;5014085;28;20022;-81
2023/11/01 06:16:49;;;;;;;2.28;1.40;;;15.30;92.10;;;;;;5014136;28;20038;-81
2023/11/01 06:19:14;;;;;;;1.55;1.20;;;15.20;92.00;;;;;;5013942;28;20025;-81
2023/11/01 06:21:40;;;;;;;1.80;1.20;;;15.20;92.10;;;;;;5020469;28;20071;-81
2023/11/01 06:24:06;;;;;;;2.65;1.42;;;15.20;92.00;;;;;;5032799;28;20112;-81
2023/11/01 06:26:31;;;;;;;1.95;1.35;;;15.20;92.10;;;;;;5033218;28;20045;-81
2023/11/01 06:28:57;;;;;;;1.95;1.30;;;15.20;92.10;;;;;;5032478;28;20167;-82
2023/11/01 06:31:22;;;;;;;2.83;1.30;;;15.40;92.10;;;;;;5031826;28;20065;-82
2023/11/01 06:33:48;;;;;;;1.33;1.13;;;15.30;92.00;;;;;;5039853;28;20049;-80
2023/11/01 06:36:14;;;;;;;2.20;1.25;;;15.30;91.90;;;;;;5030978;28;20234;-81
2023/11/01 06:38:39;;;;;;;2.90;1.17;;;15.30;91.90;;;;;;5031463;28;20491;-81
2023/11/01 06:41:05;;;;;;;2.28;1.30;;;15.40;91.90;;;;;;5031358;28;20033;-80
2023/11/01 06:43:31;;;;;;;2.47;1.30;;;15.30;91.80;;;;;;5033279;28;20792;-79
2023/11/01 06:45:57;;;;;;;1.48;1.02;;;15.40;91.80;;;;;;5033214;28;20035;-81
2023/11/01 06:48:22;;;;;;;1.65;1.00;;;15.40;91.80;;;;;;5034998;28;20034;-80
2023/11/01 06:50:48;;;;;;;1.85;1.20;;;15.30;91.80;;;;;;5020926;28;20053;-80
2023/11/01 06:53:13;;;;;;;1.92;1.20;;;15.30;91.80;;;;;;5030040;28;20486;-80
2023/11/01 06:55:39;;;;;;;1.98;1.10;;;15.30;91.80;;;;;;5035272;28;20120;-80
2023/11/01 06:58:04;;;;;;;1.70;1.10;;;15.30;91.90;;;;;;5052146;28;20439;-81
2023/11/01 07:00:33;;;;;;;1.90;1.10;;;15.30;91.90;;;;;;5035080;28;20022;-80
2023/11/01 07:02:59;;;;;;;1.80;1.10;;;15.30;91.90;;;;;;5033747;28;20036;-81
2023/11/01 07:05:25;;;;;;;2.65;1.25;;;15.30;92.00;;;;;;5034335;28;20025;-80
2023/11/01 07:07:50;;;;;;;1.67;1.15;;;15.30;92.00;;;;;;5035372;28;20049;-83
2023/11/01 07:10:17;;;;;;;1.30;0.90;;;15.20;92.00;;;;;;5034223;28;20459;-80
2023/11/01 07:12:43;;;;;;;1.38;0.90;;;15.20;92.00;;;;;;5035141;28;20040;-81
2023/11/01 07:15:10;;;;;;;1.83;1.00;;;15.20;92.00;;;;;;5034418;28;20025;-81
2023/11/01 07:17:35;;;;;;;2.08;1.20;;;15.30;92.00;;;;;;5033697;28;20024;-80
2023/11/01 07:20:01;;;;;;;1.70;1.02;;;15.30;92.10;;;;;;5032876;28;20089;-83
2023/11/01 07:22:27;;;;;;;1.35;0.95;;;15.30;92.00;;;;;;5052685;28;20071;-81
2023/11/01 07:24:53;;;;;;;1.60;1.00;;;15.30;92.00;;;;;;5053623;28;20025;-80
2023/11/01 07:27:19;;;;;;;1.30;1.00;;;15.20;92.10;;;;;;5054061;28;20498;-81
2023/11/01 07:29:45;;;;;;;1.30;0.90;;;15.20;92.10;;;;;;5053322;28;20041;-80
2023/11/01 07:32:10;;;;;;;1.10;1.00;;;15.20;92.10;;;;;;5053143;28;20048;-80
2023/11/01 07:34:36;;;;;;;2.08;1.20;;;15.20;92.10;;;;;;5054941;28;20032;-80
2023/11/01 07:37:01;;;;;;;1.42;1.00;;;15.20;92.10;;;;;;5054750;28;20025;-81
2023/11/01 07:39:27;;;;;;;1.80;1.00;;;15.20;92.10;;;;;;5054847;28;20072;-81
2023/11/01 07:41:52;;;;;;;1.17;0.90;;;15.30;92.10;;;;;;5051485;28;20036;-82
2023/11/01 07:44:19;;;;;;;2.30;1.25;;;15.20;92.10;;;;;;5051410;28;20040;-82
2023/11/01 07:46:44;;;;;;;0.90;0.90;;;15.20;92.10;;;;;;5050799;28;20552;-80
2023/11/01 07:49:10;;;;;;;1.05;0.80;;;15.30;92.10;;;;;;5052209;28;20068;-81
2023/11/01 07:51:36;;;;;;;1.15;1.00;;;15.30;92.00;;;;;;5052031;28;20025;-82
2023/11/01 07:54:02;;;;;;;1.45;0.90;;;15.30;91.90;;;;;;5052103;28;20055;-81
2023/11/01 07:56:27;;;;;;;1.00;0.90;;;15.30;91.90;;;;;;5044152;28;20033;-81
2023/11/01 07:58:53;;;;;;;0.80;0.80;;;15.30;91.80;;;;;;5037147;28;20048;-82
2023/11/01 08:01:19;;;;;;;1.63;0.90;;;15.30;91.80;;;;;;5038947;28;20057;-81
2023/11/01 08:03:45;;;;;;;1.90;0.90;;;15.30;91.80;;;;;;5034625;28;20056;-81
2023/11/01 08:06:10;;;;;;;0.82;0.80;;;15.30;91.80;;;;;;5036232;28;20035;-81
2023/11/01 08:08:36;;;;;;;1.88;1.00;;;15.40;91.80;;;;;;5034073;28;20037;-82
2023/11/01 08:11:01;;;;;;;1.40;0.90;;;15.30;91.80;;;;;;5035762;28;20033;-81
2023/11/01 08:13:27;;;;;;;1.58;1.00;;;15.30;91.90;;;;;;5035034;28;20115;-82
2023/11/01 08:15:53;;;;;;;1.27;0.90;;;15.30;91.90;;;;;;5019136;28;20080;-81
2023/11/01 08:18:18;;;;;;;1.00;0.88;;;15.30;91.90;;;;;;5015156;28;20046;-82
2023/11/01 08:20:44;;;;;;;1.00;0.90;;;15.30;92.00;;;;;;5014810;28;20026;-81
2023/11/01 08:23:09;;;;;;;0.80;0.80;;;15.30;92.00;;;;;;5013651;28;20022;-81
2023/11/01 08:25:35;;;;;;;1.42;0.70;;;15.30;92.00;;;;;;5014748;28;20096;-81
2023/11/01 08:28:01;;;;;;;1.25;0.75;;;15.20;92.00;;;;;;5019901;28;20025;-81
2023/11/01 08:30:26;;;;;;;1.27;0.70;;;15.30;92.00;;;;;;5015459;28;20030;-81
2023/11/01 08:32:52;;;;;;;1.33;0.80;;;15.20;92.00;;;;;;5014829;28;20036;-82
2023/11/01 08:35:17;;;;;;;0.93;0.70;;;15.20;92.00;;;;;;5015248;28;20065;-82
2023/11/01 08:37:43;;;;;;;1.27;0.70;;;15.20;92.00;;;;;;5015053;28;20073;-81
2023/11/01 08:40:09;;;;;;;1.10;0.82;;;15.20;92.00;;;;;;5015191;28;20049;-80
2023/11/01 08:42:35;;;;;;;1.65;0.75;;;15.20;92.10;;;;;;5014854;28;20498;-80
2023/11/01 08:45:00;;;;;;;0.82;0.80;;;15.20;92.10;;;;;;5014587;28;20793;-83
2023/11/01 08:47:35;;;;;;;1.50;0.80;;;15.20;92.10;;;;;;5013833;28;20494;-83
2023/11/01 08:50:02;;;;;;;1.48;0.90;;;15.20;92.10;;;;;;5012965;28;20029;-82
2023/11/01 08:52:28;;;;;;;1.00;0.73;;;15.20;92.10;;;;;;5014125;28;20040;-82
2023/11/01 08:54:56;;;;;;;1.02;0.82;;;15.30;92.10;;;;;;5012622;28;20117;-83
2023/11/01 08:57:22;;;;;;;0.88;0.75;;;15.20;92.10;;;;;;5013116;28;20403;-82
2023/11/01 08:59:50;;;;;;;1.10;0.80;;;15.20;92.10;;;;;;5012701;28;20123;-83
2023/11/01 09:02:16;;;;;;;1.13;0.80;;;15.20;92.10;;;;;;5012467;28;20022;-82
2023/11/01 09:04:42;;;;;;;2.22;0.90;;;15.20;92.10;;;;;;5013892;28;20105;-82
2023/11/01 09:07:08;;;;;;;1.15;0.80;;;15.20;92.10;;;;;;5012376;28;20503;-82
2023/11/01 09:09:34;;;;;;;0.95;0.70;;;15.20;92.00;;;;;;5011345;28;20030;-81
2023/11/01 09:11:59;;;;;;;1.77;0.80;;;15.30;91.90;;;;;;5012232;28;20076;-81
2023/11/01 09:14:25;;;;;;;0.98;0.73;;;15.30;91.90;;;;;;5011835;28;20018;-82
2023/11/01 09:16:50;;;;;;;0.80;0.80;;;15.40;91.90;;;;;;5023037;28;20051;-81
2023/11/01 09:19:15;;;;;;;1.15;0.70;;;15.40;91.80;;;;;;5029773;28;20036;-83
2023/11/01 09:21:41;;;;;;;0.80;0.60;;;15.40;91.80;;;;;;5031168;28;20021;-81
2023/11/01 09:24:07;;;;;;;1.52;0.80;;;15.40;91.80;;;;;;5032354;28;20021;-83
2023/11/01 09:26:32;;;;;;;0.93;0.80;;;15.40;91.80;;;;;;5031924;28;20637;-82
2023/11/01 09:28:58;;;;;;;0.98;0.80;;;15.40;91.80;;;;;;5030321;28;20059;-82
2023/11/01 09:31:25;;;;;;;2.08;0.77;;;15.30;91.90;;;;;;5030658;28;20091;-82
2023/11/01 09:33:50;;;;;;;0.70;0.63;;;15.40;91.90;;;;;;5029718;28;20852;-82
2023/11/01 09:36:16;;;;;;;1.38;0.80;;;15.30;91.90;;;;;;5029084;28;20029;-82
2023/11/01 09:38:42;;;;;;;1.60;0.80;;;15.40;92.00;;;;;;5029087;28;20506;-83
2023/11/01 09:41:07;;;;;;;1.83;0.80;;;15.40;92.00;;;;;;5029347;28;20029;-82
2023/11/01 09:43:37;;;;;;;1.65;0.80;;;15.30;92.00;;;;;;5029984;28;20048;-81
2023/11/01 09:46:06;;;;;;;1.55;0.85;;;15.30;92.00;;;;;;5030054;28;20057;-83
2023/11/01 09:48:33;;;;;;;3.83;0.80;;;15.30;92.00;;;;;;5030257;28;20040;-83
2023/11/01 09:51:01;;;;;;;2.78;1.00;;;15.30;92.00;;;;;;5028439;28;20829;-82
2023/11/01 09:53:26;;;;;;;3.15;0.80;;;15.30;92.00;;;;;;5028673;28;20124;-83
2023/11/01 09:55:53;;;;;;;1.67;0.80;;;15.30;92.10;;;;;;5030205;28;20085;-82
2023/11/01 09:58:19;;;;;;;1.65;0.80;;;15.40;92.00;;;;;;5029752;28;20475;-83
2023/11/01 10:00:45;;;;;;;2.45;0.80;;;15.40;92.00;;;;;;5030182;28;20100;-79
2023/11/01 10:03:12;;;;;;;1.83;0.70;;;15.40;92.00;;;;;;5028096;28;20117;-82
2023/11/01 10:05:37;;;;;;;3.08;0.90;;;15.40;92.00;;;;;;5029419;28;20030;-80
2023/11/01 10:08:03;;;;;;;2.63;0.90;;;15.40;92.00;;;;;;5028101;28;20044;-81
2023/11/01 10:10:30;;;;;;;2.13;0.77;;;15.40;91.90;;;;;;5029037;28;20498;-81
2023/11/01 10:12:55;;;;;;;1.98;0.93;;;15.40;91.90;;;;;;5030005;28;20040;-82
2023/11/01 10:15:21;;;;;;;1.80;0.75;;;15.40;91.90;;;;;;5028060;28;20554;-81
2023/11/01 10:17:48;;;;;;;3.17;1.00;;;15.40;91.90;;;;;;5028310;28;20401;-80
2023/11/01 10:20:29;;;;;;;1.55;0.80;;;15.40;91.90;;;;;;5027632;28;20025;-81
2023/11/01 10:22:55;;;;;;;3.03;0.80;;;15.50;91.90;;;;;;5033334;28;20030;-80
2023/11/01 10:25:21;;;;;;;1.35;0.80;;;15.50;91.90;;;;;;5030696;28;20491;-79
2023/11/01 10:27:48;;;;;;;3.45;0.90;;;15.50;91.80;;;;;;5031133;28;20033;-79
2023/11/01 10:30:14;;;;;;;1.73;0.77;;;15.60;91.80;;;;;;5031093;28;20561;-79
2023/11/01 10:32:56;;;;;;;2.00;0.70;;;15.60;91.70;;;;;;5032471;28;20037;-81
2023/11/01 10:35:22;;;;;;;1.20;0.70;;;15.60;91.60;;;;;;5048056;28;20132;-82
2023/11/01 10:37:55;;;;;;;1.60;0.70;;;15.60;91.50;;;;;;5032439;28;20461;-81
2023/11/01 10:40:21;;;;;;;1.67;0.80;;;15.60;91.50;;;;;;5030836;28;20068;-81
2023/11/01 10:42:51;;;;;;;2.33;0.80;;;15.60;91.50;;;;;;5031028;28;20033;-82
2023/11/01 10:45:16;;;;;;;1.20;0.80;;;15.70;91.40;;;;;;5031107;28;20067;-81
2023/11/01 10:47:42;;;;;;;2.28;0.77;;;15.60;91.40;;;;;;5032676;28;20045;-81
2023/11/01 10:50:08;;;;;;;1.35;0.60;;;15.70;91.50;;;;;;5030677;28;20036;-84
2023/11/01 10:52:35;;;;;;;1.35;0.77;;;15.70;91.50;;;;;;5032452;28;20032;-84
2023/11/01 10:55:02;;;;;;;1.63;0.85;;;15.60;91.50;;;;;;5032588;28;20037;-81
2023/11/01 10:57:28;;;;;;;1.35;0.70;;;15.70;91.50;;;;;;5032357;28;20026;-83
2023/11/01 11:00:13;;;;;;;1.63;0.70;;;15.60;91.50;;;;;;5029509;28;20052;-80
2023/11/01 11:03:07;;;;;;;1.52;0.77;;;15.70;91.60;;;;;;5032043;28;20068;-81
2023/11/01 11:05:39;;;;;;;2.53;0.90;;;15.70;91.60;;;;;;5019247;28;20615;-80
2023/11/01 11:08:09;;;;;;;1.23;0.70;;;15.60;91.60;;;;;;5033600;28;20036;-82
2023/11/01 11:10:39;;;;;;;2.67;0.90;;;15.60;91.60;;;;;;5031400;28;20033;-82
2023/11/01 11:13:13;;;;;;;2.22;0.98;;;15.60;91.60;;;;;;5030312;28;20423;-81
2023/11/01 11:15:51;;;;;;;1.92;0.70;;;15.60;91.60;;;;;;5034516;28;20041;-82
2023/11/01 11:18:21;;;;;;;0.68;0.55;;;15.60;91.70;;;;;;5058046;22;20072;-82
2023/11/01 11:20:58;;;;;;;2.60;0.80;;;15.60;91.70;;;;;;5019159;28;20053;-83
2023/11/01 11:23:35;;;;;;;3.28;0.80;;;15.60;92.00;;;;;;5018147;28;20025;-84
2023/11/01 11:26:04;;;;;;;1.42;0.70;;;15.60;91.80;;;;;;5019122;28;20120;-84
2023/11/01 11:28:37;;;;;;;1.00;0.70;;;15.60;91.80;;;;;;5035386;28;20041;-83
2023/11/01 11:31:15;;;;;;;1.30;0.70;;;15.60;91.80;;;;;;5051705;28;20036;-84
2023/11/01 11:33:47;;;;;;;1.85;0.70;;;15.50;91.80;;;;;;5051913;28;20026;-83
2023/11/01 11:36:23;;;;;;;3.10;0.80;;;15.50;91.80;;;;;;5051590;28;20032;-84
2023/11/01 11:38:57;;;;;;;2.47;0.80;;;15.50;91.90;;;;;;5051838;28;20032;-83
2023/11/01 11:41:42;;;;;;;1.52;0.70;;;15.60;91.90;;;;;;5051226;28;20506;-83
2023/11/01 11:44:07;;;;;;;2.78;0.93;;;15.60;91.80;;;;;;5051342;28;20027;-85
2023/11/01 11:46:35;;;;;;;2.08;0.60;;;15.60;91.70;;;;;;5051471;28;20160;-82
2023/11/01 11:49:24;;;;;;;1.20;0.60;;;15.60;91.60;;;;;;5051617;28;20032;-84
2023/11/01 11:51:57;;;;;;;2.65;0.90;;;15.70;91.60;;;;;;5052344;28;20398;-83
2023/11/01 11:54:24;;;;;;;0.82;0.70;;;15.70;91.50;;;;;;5036305;28;20483;-83
2023/11/01 11:57:08;;;;;;;2.20;0.57;;;15.70;91.50;;;;;;5051539;28;20475;-83
2023/11/01 11:59:37;;;;;;;1.38;0.73;;;15.70;91.50;;;;;;5036240;28;20056;-83
2023/11/01 12:02:15;;;;;;;2.05;0.80;;;15.70;91.40;;;;;;5051858;28;20048;-83
2023/11/01 12:04:43;;;;;;;2.42;0.90;;;15.80;91.40;;;;;;5051327;28;20022;-83
2023/11/01 12:07:17;;;;;;;0.98;0.60;;;15.70;91.40;;;;;;5051630;28;20023;-83
2023/11/01 12:09:47;;;;;;;2.97;0.80;;;15.80;91.40;;;;;;5051447;28;20026;-83
2023/11/01 12:12:13;;;;;;;2.30;0.80;;;15.80;91.40;;;;;;5051668;28;20041;-83
2023/11/01 12:14:40;;;;;;;3.08;1.00;;;15.80;91.40;;;;;;5036559;28;20026;-83
2023/11/01 12:17:06;;;;;;;2.88;0.90;;;15.80;91.50;;;;;;5051554;28;20052;-83
2023/11/01 12:19:42;;;;;;;2.20;0.80;;;15.70;91.50;;;;;;5051245;28;20060;-83
2023/11/01 12:22:08;;;;;;;1.92;0.63;;;15.70;91.50;;;;;;5036268;28;20457;-84
2023/11/01 12:24:37;;;;;;;1.50;0.70;;;15.70;91.50;;;;;;5034816;28;20091;-83
2023/11/01 12:27:10;;;;;;;0.90;0.52;;;15.70;91.50;;;;;;5034521;28;20048;-83
2023/11/01 12:29:45;;;;;;;1.45;0.68;;;15.70;91.60;;;;;;5034348;28;20036;-83
2023/11/01 12:32:13;;;;;;;1.48;0.68;;;15.70;91.60;;;;;;5034151;28;20079;-83
2023/11/01 12:34:48;;;;;;;1.98;0.70;;;15.70;91.60;;;;;;5051159;28;20021;-84
2023/11/01 12:37:24;;;;;;;1.58;0.77;;;15.70;91.60;;;;;;5034652;28;20057;-84
2023/11/01 12:40:15;;;;;;;1.95;0.70;;;15.70;91.60;;;;;;5050615;28;20026;-83
2023/11/01 12:42:51;;;;;;;1.60;0.65;;;15.70;91.60;;;;;;5050075;28;20048;-85
2023/11/01 12:45:19;;;;;;;2.92;0.80;;;15.70;91.60;;;;;;5050681;28;20099;-85
2023/11/01 12:47:52;;;;;;;1.63;0.60;;;15.70;91.60;;;;;;5050629;28;20025;-85